createdAt,value
2022-11-19T00:01:24.756Z,286.38
2022-11-19T00:03:53.152Z,290.90
2022-11-19T00:06:22.283Z,288.23
2022-11-19T00:08:49.442Z,289.45
2022-11-19T00:11:37.455Z,292.00
2022-11-19T00:14:04.515Z,294.33
2022-11-19T00:16:31.035Z,289.67
2022-11-19T00:18:57.703Z,293.73
2022-11-19T00:21:24.344Z,299.73
2022-11-19T00:23:54.356Z,317.77
2022-11-19T00:26:21.817Z,334.85
2022-11-19T00:28:48.555Z,348.33
2022-11-19T00:31:16.300Z,359.50
2022-11-19T00:33:44.519Z,379.33
2022-11-19T00:36:15.311Z,389.75
2022-11-19T00:38:42.420Z,398.05
2022-11-19T00:41:09.133Z,410.33
2022-11-19T00:43:47.982Z,418.77
2022-11-19T00:46:27.324Z,420.63
2022-11-19T00:48:55.811Z,426.30
2022-11-19T00:51:23.730Z,433.42
2022-11-19T00:53:51.089Z,431.38
2022-11-19T00:56:20.477Z,437.57
2022-11-19T00:58:47.966Z,438.38
2022-11-19T01:01:16.331Z,440.38
2022-11-19T01:03:46.023Z,443.90
2022-11-19T01:06:18.669Z,445.90
2022-11-19T01:08:47.463Z,442.15
2022-11-19T01:11:18.629Z,445.98
2022-11-19T01:13:45.596Z,450.20
2022-11-19T01:16:15.886Z,446.08
2022-11-19T01:18:43.815Z,448.20
2022-11-19T01:21:11.643Z,448.65
2022-11-19T01:23:40.436Z,446.58
2022-11-19T01:26:07.548Z,452.20
2022-11-19T01:28:35.060Z,449.08
2022-11-19T01:31:13.843Z,445.60
2022-11-19T01:33:40.859Z,444.60
2022-11-19T01:36:18.668Z,444.35
2022-11-19T01:38:50.758Z,437.58
2022-11-19T01:41:23.389Z,435.02
2022-11-19T01:43:52.594Z,434.80
2022-11-19T01:46:21.944Z,430.33
2022-11-19T01:48:53.932Z,427.27
2022-11-19T01:51:35.630Z,429.20
2022-11-19T01:54:08.625Z,429.70
2022-11-19T01:56:36.383Z,424.52
2022-11-19T01:59:15.923Z,423.08
2022-11-19T02:01:44.063Z,427.92
2022-11-19T02:04:11.808Z,426.92
2022-11-19T02:06:38.938Z,419.23
2022-11-19T02:09:05.495Z,414.90
2022-11-19T02:11:41.053Z,410.00
2022-11-19T02:14:29.324Z,409.55
2022-11-19T02:17:26.551Z,410.08
2022-11-19T02:20:19.919Z,405.75
2022-11-19T02:23:31.801Z,406.77
2022-11-19T02:26:35.639Z,408.48
2022-11-19T02:29:20.867Z,410.58
2022-11-19T02:32:04.145Z,406.10
2022-11-19T02:34:41.408Z,407.23
2022-11-19T02:37:19.547Z,404.95
2022-11-19T02:40:03.193Z,404.40
2022-11-19T02:42:33.519Z,406.33
2022-11-19T02:45:08.636Z,404.63
2022-11-19T02:47:40.319Z,399.80
2022-11-19T02:50:12.825Z,392.65
2022-11-19T02:52:43.840Z,393.35
2022-11-19T02:55:14.800Z,391.88
2022-11-19T02:57:48.552Z,389.60
2022-11-19T03:00:33.794Z,388.47
2022-11-19T03:03:28.611Z,366.23
2022-11-19T03:06:03.604Z,379.15
2022-11-19T03:08:30.405Z,376.63
2022-11-19T03:10:56.942Z,374.20
2022-11-19T03:13:45.398Z,374.75
2022-11-19T03:16:42.883Z,369.85
2022-11-19T03:19:23.095Z,363.48
2022-11-19T03:21:58.387Z,361.27
2022-11-19T03:24:32.865Z,361.17
2022-11-19T03:27:35.437Z,354.50
2022-11-19T03:30:03.392Z,347.67
2022-11-19T03:32:35.265Z,335.23
2022-11-19T03:35:07.556Z,333.63
2022-11-19T03:37:37.832Z,325.42
2022-11-19T03:40:08.532Z,329.02
2022-11-19T03:42:36.816Z,327.67
2022-11-19T03:45:10.715Z,348.48
2022-11-19T03:47:40.291Z,335.42
2022-11-19T03:50:35.142Z,324.80
2022-11-19T03:53:04.604Z,337.67
2022-11-19T03:55:35.410Z,330.13
2022-11-19T03:58:06.980Z,331.55
2022-11-19T04:00:33.793Z,325.13
2022-11-19T04:03:00.823Z,314.05
2022-11-19T04:05:27.488Z,317.58
2022-11-19T04:07:54.078Z,314.77
2022-11-19T04:10:20.806Z,320.50
2022-11-19T04:12:47.716Z,318.00
2022-11-19T04:15:15.250Z,319.45
2022-11-19T04:17:41.993Z,309.60
2022-11-19T04:20:09.450Z,303.73
2022-11-19T04:22:35.977Z,311.92
2022-11-19T04:25:02.605Z,305.20
2022-11-19T04:27:29.220Z,304.52
2022-11-19T04:29:55.914Z,310.27
2022-11-19T04:32:22.455Z,316.83
2022-11-19T04:34:49.546Z,314.20
2022-11-19T04:37:16.155Z,318.15
2022-11-19T04:39:42.852Z,313.40
2022-11-19T04:42:09.432Z,316.42
2022-11-19T04:44:35.954Z,317.05
2022-11-19T04:47:02.659Z,304.80
2022-11-19T04:49:29.224Z,305.40
2022-11-19T04:51:56.022Z,320.13
2022-11-19T04:54:22.748Z,310.48
2022-11-19T04:56:49.379Z,312.67
2022-11-19T04:59:15.907Z,311.00
2022-11-19T05:01:42.552Z,318.85
2022-11-19T05:04:10.062Z,320.10
2022-11-19T05:06:36.645Z,301.08
2022-11-19T05:09:03.287Z,293.50
2022-11-19T05:11:29.845Z,310.33
2022-11-19T05:13:56.641Z,297.08
2022-11-19T05:16:23.282Z,286.17
2022-11-19T05:18:49.846Z,285.92
2022-11-19T05:21:16.522Z,280.92
2022-11-19T05:23:43.140Z,277.98
2022-11-19T05:26:09.759Z,275.00
2022-11-19T05:28:40.064Z,270.90
2022-11-19T05:31:07.628Z,270.85
2022-11-19T05:33:34.742Z,261.92
2022-11-19T05:36:02.450Z,252.98
2022-11-19T05:38:29.314Z,239.23
2022-11-19T05:40:55.891Z,233.73
2022-11-19T05:43:22.535Z,224.90
2022-11-19T05:45:49.261Z,218.15
2022-11-19T05:48:15.799Z,224.77
2022-11-19T05:50:42.988Z,218.07
2022-11-19T05:53:09.949Z,204.90
2022-11-19T05:55:36.593Z,191.30
2022-11-19T05:58:03.544Z,179.40
2022-11-19T06:00:30.352Z,176.63
2022-11-19T06:02:56.927Z,171.37
2022-11-19T06:05:23.745Z,181.07
2022-11-19T06:07:50.527Z,170.32
2022-11-19T06:10:17.222Z,171.57
2022-11-19T06:12:46.837Z,187.32
2022-11-19T06:15:14.360Z,171.43
2022-11-19T06:17:41.482Z,180.23
2022-11-19T06:20:10.912Z,174.90
2022-11-19T06:22:38.521Z,175.30
2022-11-19T06:25:06.026Z,175.57
2022-11-19T06:27:32.568Z,174.73
2022-11-19T06:29:59.255Z,154.57
2022-11-19T06:32:25.899Z,172.55
2022-11-19T06:34:52.507Z,155.07
2022-11-19T06:37:19.168Z,157.88
2022-11-19T06:39:45.720Z,141.95
2022-11-19T06:42:30.951Z,130.55
2022-11-19T06:44:57.555Z,135.18
2022-11-19T06:47:24.151Z,131.50
2022-11-19T06:49:50.930Z,141.57
2022-11-19T06:52:17.459Z,120.20
2022-11-19T06:54:44.037Z,137.60
2022-11-19T06:57:10.668Z,122.00
2022-11-19T06:59:39.572Z,111.65
2022-11-19T07:02:07.267Z,128.98
2022-11-19T07:04:33.879Z,113.93
2022-11-19T07:07:00.519Z,119.90
2022-11-19T07:09:27.318Z,114.27
2022-11-19T07:11:54.158Z,106.30
2022-11-19T07:14:20.652Z,123.73
2022-11-19T07:16:47.266Z,117.55
2022-11-19T07:19:13.856Z,130.25
2022-11-19T07:21:40.424Z,121.25
2022-11-19T07:24:09.328Z,124.50
2022-11-19T07:26:36.908Z,114.68
2022-11-19T07:29:12.619Z,116.18
2022-11-19T07:31:39.286Z,105.53
2022-11-19T07:34:10.024Z,95.67
2022-11-19T07:36:40.739Z,98.60
2022-11-19T07:39:07.449Z,109.67
2022-11-19T07:41:52.888Z,97.60
2022-11-19T07:44:19.691Z,84.07
2022-11-19T07:46:46.310Z,76.63
2022-11-19T07:49:15.666Z,72.32
2022-11-19T07:51:44.647Z,63.33
2022-11-19T07:54:12.854Z,62.20
2022-11-19T07:56:39.912Z,72.88
2022-11-19T07:59:06.682Z,66.82
2022-11-19T08:01:33.340Z,63.90
2022-11-19T08:04:00.356Z,59.67
2022-11-19T08:06:28.622Z,57.35
2022-11-19T08:08:58.760Z,52.67
2022-11-19T08:11:25.474Z,48.65
2022-11-19T08:13:52.816Z,46.50
2022-11-19T08:16:38.584Z,58.53
2022-11-19T08:19:09.463Z,46.63
2022-11-19T08:21:39.975Z,45.20
2022-11-19T08:24:07.664Z,45.92
2022-11-19T08:26:34.623Z,48.67
2022-11-19T08:29:01.684Z,52.00
2022-11-19T08:31:28.691Z,46.78
2022-11-19T08:33:58.126Z,45.13
2022-11-19T08:36:24.847Z,50.83
2022-11-19T08:38:51.399Z,55.30
2022-11-19T08:41:36.250Z,46.08
2022-11-19T08:44:03.378Z,45.65
2022-11-19T08:46:30.044Z,47.20
2022-11-19T08:48:58.788Z,57.00
2022-11-19T08:51:25.466Z,47.15
2022-11-19T08:53:55.069Z,45.95
2022-11-19T08:56:22.155Z,51.13
2022-11-19T08:58:49.345Z,42.67
2022-11-19T09:01:17.479Z,45.63
2022-11-19T09:03:44.189Z,54.03
2022-11-19T09:06:11.845Z,40.42
2022-11-19T09:08:39.006Z,38.63
2022-11-19T09:11:20.311Z,39.00
2022-11-19T09:13:47.294Z,29.80
2022-11-19T09:16:14.433Z,32.08
2022-11-19T09:18:42.234Z,39.90
2022-11-19T09:21:11.860Z,30.55
2022-11-19T09:23:39.884Z,30.00
2022-11-19T09:26:13.556Z,37.10
2022-11-19T09:28:40.913Z,31.67
2022-11-19T09:31:13.703Z,32.75
2022-11-19T09:33:42.270Z,32.78
2022-11-19T09:36:10.303Z,27.55
2022-11-19T09:38:37.166Z,31.67
2022-11-19T09:41:21.517Z,27.13
2022-11-19T09:44:20.937Z,24.40
2022-11-19T09:47:12.458Z,21.17
2022-11-19T09:49:46.902Z,19.92
2022-11-19T09:52:20.205Z,21.10
2022-11-19T09:54:51.517Z,21.02
2022-11-19T09:57:51.025Z,17.77
2022-11-19T10:00:21.868Z,17.60
2022-11-19T10:02:48.852Z,17.23
2022-11-19T10:05:30.950Z,19.15
2022-11-19T10:08:03.425Z,17.67
2022-11-19T10:10:51.955Z,17.92
2022-11-19T10:14:01.660Z,19.60
2022-11-19T10:16:46.610Z,17.65
2022-11-19T10:19:24.373Z,16.60
2022-11-19T10:22:10.313Z,16.50
2022-11-19T10:24:59.447Z,17.23
2022-11-19T10:27:29.598Z,16.98
2022-11-19T10:30:00.220Z,16.60
2022-11-19T10:32:35.870Z,13.88
2022-11-19T10:35:09.011Z,14.07
2022-11-19T10:37:40.859Z,14.52
2022-11-19T10:40:21.360Z,14.90
2022-11-19T10:42:54.035Z,14.73
2022-11-19T10:45:28.585Z,13.20
2022-11-19T10:48:20.527Z,14.45
2022-11-19T10:50:47.276Z,13.98
2022-11-19T10:53:25.080Z,14.20
2022-11-19T10:55:56.240Z,14.00
2022-11-19T10:58:27.443Z,12.90
2022-11-19T11:00:55.807Z,12.95
2022-11-19T11:03:43.678Z,13.23
2022-11-19T11:06:10.986Z,13.15
2022-11-19T11:08:54.509Z,13.60
2022-11-19T11:11:53.214Z,10.93
2022-11-19T11:14:40.972Z,12.65
2022-11-19T11:17:19.728Z,13.90
2022-11-19T11:20:01.508Z,14.10
2022-11-19T11:22:28.489Z,14.10
2022-11-19T11:24:55.110Z,15.95
2022-11-19T11:27:27.242Z,15.30
2022-11-19T11:30:14.041Z,13.98
2022-11-19T11:32:41.664Z,13.25
2022-11-19T11:35:34.334Z,12.82
2022-11-19T11:38:02.546Z,12.50
2022-11-19T11:40:30.193Z,14.40
2022-11-19T11:42:57.402Z,12.80
2022-11-19T11:45:35.056Z,13.40
2022-11-19T11:48:21.800Z,13.27
2022-11-19T11:50:48.707Z,13.95
2022-11-19T11:53:27.331Z,13.80
2022-11-19T11:56:04.896Z,13.00
2022-11-19T11:58:33.940Z,12.20
2022-11-19T12:01:18.378Z,11.60
2022-11-19T12:03:59.318Z,13.82
2022-11-19T12:06:39.604Z,11.23
2022-11-19T12:09:22.167Z,9.63
2022-11-19T12:12:03.665Z,10.63
2022-11-19T12:14:36.666Z,11.05
2022-11-19T12:17:35.059Z,9.77
2022-11-19T12:20:22.605Z,10.75
2022-11-19T12:23:21.858Z,9.43
2022-11-19T12:25:57.744Z,11.10
2022-11-19T12:28:24.368Z,9.50
2022-11-19T12:31:10.696Z,12.30
2022-11-19T12:33:46.651Z,9.43
2022-11-19T12:36:40.634Z,10.70
2022-11-19T12:39:45.548Z,11.07
2022-11-19T12:42:33.657Z,11.47
2022-11-19T12:45:36.181Z,10.40
2022-11-19T12:48:21.479Z,10.35
2022-11-19T12:51:12.867Z,8.90
2022-11-19T12:54:00.793Z,9.25
2022-11-19T12:56:48.040Z,9.55
2022-11-19T12:59:20.880Z,10.50
2022-11-19T13:01:52.635Z,10.80
2022-11-19T13:04:27.450Z,9.77
2022-11-19T13:06:57.893Z,8.60
2022-11-19T13:09:42.202Z,12.75
2022-11-19T13:12:16.948Z,10.27
2022-11-19T13:15:03.486Z,9.30
2022-11-19T13:17:37.293Z,11.20
2022-11-19T13:20:15.201Z,10.13
2022-11-19T13:22:48.024Z,10.00
2022-11-19T13:25:36.165Z,11.98
2022-11-19T13:28:08.330Z,11.52
2022-11-19T13:30:38.330Z,11.60
2022-11-19T13:33:18.832Z,12.40
2022-11-19T13:35:48.463Z,16.92
2022-11-19T13:38:44.345Z,24.20
2022-11-19T13:41:30.571Z,29.02
2022-11-19T13:44:17.538Z,21.10
2022-11-19T13:46:48.700Z,20.42
2022-11-19T13:49:41.559Z,11.57
2022-11-19T13:52:25.142Z,11.35
2022-11-19T13:54:51.895Z,11.07
2022-11-19T13:57:34.822Z,12.23
2022-11-19T14:00:04.023Z,11.50
2022-11-19T14:02:41.147Z,12.50
2022-11-19T14:05:26.561Z,13.57
2022-11-19T14:07:53.140Z,14.75
2022-11-19T14:10:38.037Z,17.67
2022-11-19T14:13:17.805Z,13.40
2022-11-19T14:16:22.390Z,17.73
2022-11-19T14:19:29.330Z,17.77
2022-11-19T14:22:16.452Z,16.52
2022-11-19T14:25:04.977Z,16.92
2022-11-19T14:27:33.361Z,20.00
2022-11-19T14:30:14.079Z,22.08
2022-11-19T14:32:47.462Z,19.88
2022-11-19T14:35:31.027Z,25.88
2022-11-19T14:38:29.878Z,22.52
2022-11-19T14:41:24.487Z,21.45
2022-11-19T14:44:10.075Z,24.13
2022-11-19T14:46:40.443Z,25.15
2022-11-19T14:49:26.892Z,24.25
2022-11-19T14:51:57.652Z,27.47
2022-11-19T14:54:35.986Z,28.27
2022-11-19T14:57:41.164Z,24.70
2022-11-19T15:00:29.614Z,28.80
2022-11-19T15:02:59.956Z,24.60
2022-11-19T15:05:33.196Z,24.60
2022-11-19T15:08:18.338Z,31.30
2022-11-19T15:11:12.192Z,30.45
2022-11-19T15:13:43.888Z,23.27
2022-11-19T15:16:22.666Z,31.55
2022-11-19T15:19:21.607Z,27.55
2022-11-19T15:21:56.556Z,26.10
2022-11-19T15:24:37.156Z,32.38
2022-11-19T15:27:41.589Z,21.90
2022-11-19T15:30:21.109Z,26.05
2022-11-19T15:32:50.803Z,23.45
2022-11-19T15:35:57.322Z,26.20
2022-11-19T15:38:24.069Z,24.07
2022-11-19T15:40:56.081Z,21.52
2022-11-19T15:43:43.813Z,25.58
2022-11-19T15:46:20.334Z,20.55
2022-11-19T15:49:14.893Z,25.20
2022-11-19T15:51:56.597Z,27.48
2022-11-19T15:54:31.304Z,22.95
2022-11-19T15:57:06.082Z,22.50
2022-11-19T15:59:36.511Z,29.70
2022-11-19T16:02:07.069Z,31.40
2022-11-19T16:04:38.986Z,29.17
2022-11-19T16:07:10.153Z,30.75
2022-11-19T16:09:40.738Z,27.00
2022-11-19T16:12:37.409Z,26.70
2022-11-19T16:15:42.810Z,37.10
2022-11-19T16:18:18.515Z,32.38
2022-11-19T16:20:48.585Z,31.08
2022-11-19T16:23:20.123Z,28.85
2022-11-19T16:25:47.747Z,34.50
2022-11-19T16:28:18.291Z,30.85
2022-11-19T16:30:53.913Z,26.73
2022-11-19T16:33:27.052Z,28.90
2022-11-19T16:36:17.761Z,26.88
2022-11-19T16:38:50.262Z,25.00
2022-11-19T16:41:38.707Z,20.90
2022-11-19T16:44:09.627Z,21.40
2022-11-19T16:46:37.796Z,26.30
2022-11-19T16:49:12.586Z,21.80
2022-11-19T16:52:00.613Z,21.73
2022-11-19T16:54:49.965Z,20.75
2022-11-19T16:57:23.552Z,20.80
2022-11-19T16:59:53.053Z,21.83
2022-11-19T17:02:22.527Z,20.83
2022-11-19T17:04:55.511Z,19.85
2022-11-19T17:07:26.325Z,23.83
2022-11-19T17:10:31.406Z,27.60
2022-11-19T17:13:02.633Z,28.63
2022-11-19T17:15:38.755Z,21.37
2022-11-19T17:18:17.457Z,28.30
2022-11-19T17:20:44.053Z,26.67
2022-11-19T17:23:19.221Z,26.02
2022-11-19T17:25:58.154Z,27.45
2022-11-19T17:28:36.020Z,42.65
2022-11-19T17:31:15.584Z,47.03
2022-11-19T17:34:00.458Z,43.75
2022-11-19T17:36:31.731Z,54.57
2022-11-19T17:38:58.689Z,86.20
2022-11-19T17:41:46.957Z,97.40
2022-11-19T17:44:31.715Z,59.47
2022-11-19T17:46:58.776Z,56.83
2022-11-19T17:49:25.366Z,56.22
2022-11-19T17:51:52.573Z,59.22
2022-11-19T17:54:19.792Z,63.05
2022-11-19T17:56:49.159Z,59.17
2022-11-19T17:59:15.766Z,63.03
2022-11-19T18:01:42.594Z,65.10
2022-11-19T18:04:12.473Z,60.45
2022-11-19T18:06:39.494Z,61.97
2022-11-19T18:09:06.260Z,64.43
2022-11-19T18:11:33.061Z,65.50
2022-11-19T18:14:01.936Z,61.80
2022-11-19T18:16:34.197Z,64.35
2022-11-19T18:19:00.938Z,70.65
2022-11-19T18:21:27.697Z,85.72
2022-11-19T18:23:57.063Z,77.15
2022-11-19T18:26:24.746Z,70.43
2022-11-19T18:28:51.377Z,79.65
2022-11-19T18:31:21.530Z,90.20
2022-11-19T18:33:49.280Z,81.68
2022-11-19T18:36:17.231Z,80.45
2022-11-19T18:38:46.945Z,103.22
2022-11-19T18:41:23.325Z,95.18
2022-11-19T18:44:08.436Z,91.85
2022-11-19T18:46:35.216Z,145.45
2022-11-19T18:49:02.428Z,142.15
2022-11-19T18:51:36.375Z,117.53
2022-11-19T18:54:05.052Z,117.50
2022-11-19T18:56:31.635Z,99.45
2022-11-19T18:59:04.359Z,113.78
2022-11-19T19:01:31.652Z,121.68
2022-11-19T19:03:58.388Z,106.10
2022-11-19T19:06:25.499Z,109.60
2022-11-19T19:08:52.094Z,120.97
2022-11-19T19:11:37.148Z,119.10
2022-11-19T19:14:04.170Z,118.35
2022-11-19T19:16:30.826Z,122.10
2022-11-19T19:18:57.551Z,164.25
2022-11-19T19:21:24.738Z,176.98
2022-11-19T19:23:51.420Z,168.40
2022-11-19T19:26:19.875Z,138.10
2022-11-19T19:28:51.867Z,142.80
2022-11-19T19:31:22.840Z,130.82
2022-11-19T19:33:49.927Z,145.82
2022-11-19T19:36:18.898Z,134.07
2022-11-19T19:38:46.011Z,146.00
2022-11-19T19:41:25.374Z,149.20
2022-11-19T19:43:54.157Z,145.82
2022-11-19T19:46:22.994Z,164.85
2022-11-19T19:48:52.668Z,156.20
2022-11-19T19:51:20.912Z,156.73
2022-11-19T19:53:48.531Z,157.70
2022-11-19T19:56:20.703Z,157.73
2022-11-19T19:58:49.216Z,180.30
2022-11-19T20:01:18.245Z,177.93
2022-11-19T20:03:44.992Z,167.73
2022-11-19T20:06:13.824Z,186.63
2022-11-19T20:08:42.082Z,205.98
2022-11-19T20:11:25.940Z,197.50
2022-11-19T20:13:54.051Z,201.82
2022-11-19T20:16:26.677Z,201.77
2022-11-19T20:18:55.134Z,201.93
2022-11-19T20:21:38.253Z,210.02
2022-11-19T20:24:12.403Z,215.60
2022-11-19T20:26:40.881Z,223.73
2022-11-19T20:29:11.527Z,233.68
2022-11-19T20:31:40.313Z,249.60
2022-11-19T20:34:08.730Z,263.25
2022-11-19T20:36:37.419Z,277.08
2022-11-19T20:39:09.647Z,289.35
2022-11-19T20:41:54.921Z,304.73
2022-11-19T20:44:27.038Z,313.23
2022-11-19T20:47:02.959Z,320.65
2022-11-19T20:49:35.351Z,336.75
2022-11-19T20:52:03.590Z,346.77
2022-11-19T20:54:30.290Z,363.17
2022-11-19T20:56:59.841Z,369.38
2022-11-19T20:59:27.806Z,380.35
2022-11-19T21:01:56.031Z,388.58
2022-11-19T21:04:24.793Z,403.33
2022-11-19T21:06:54.372Z,428.20
2022-11-19T21:09:21.492Z,412.55
2022-11-19T21:11:48.596Z,414.95
2022-11-19T21:14:15.260Z,420.50
2022-11-19T21:16:41.824Z,426.48
2022-11-19T21:19:12.435Z,429.23
2022-11-19T21:21:39.066Z,441.40
2022-11-19T21:24:07.185Z,441.73
2022-11-19T21:26:34.095Z,443.58
2022-11-19T21:29:00.740Z,444.75
2022-11-19T21:31:42.377Z,455.63
2022-11-19T21:34:11.623Z,452.55
2022-11-19T21:36:42.433Z,458.73
2022-11-19T21:39:14.692Z,462.10
2022-11-19T21:41:44.920Z,451.90
2022-11-19T21:44:14.271Z,444.17
2022-11-19T21:46:44.848Z,449.33
2022-11-19T21:49:11.422Z,447.90
2022-11-19T21:51:38.194Z,441.55
2022-11-19T21:54:07.308Z,445.58
2022-11-19T21:56:38.601Z,442.00
2022-11-19T21:59:06.984Z,447.95
2022-11-19T22:01:35.690Z,433.30
2022-11-19T22:04:02.573Z,452.95
2022-11-19T22:06:33.426Z,449.90
2022-11-19T22:09:00.089Z,443.63
2022-11-19T22:11:29.956Z,450.00
2022-11-19T22:14:02.174Z,456.97
2022-11-19T22:16:30.495Z,450.10
2022-11-19T22:18:57.213Z,435.48
2022-11-19T22:21:23.950Z,460.35
2022-11-19T22:23:52.568Z,465.75
2022-11-19T22:26:19.200Z,454.42
2022-11-19T22:28:46.545Z,454.52
2022-11-19T22:31:14.235Z,450.48
2022-11-19T22:33:41.440Z,456.43
2022-11-19T22:36:10.596Z,467.92
2022-11-19T22:38:38.485Z,468.87
2022-11-19T22:41:08.240Z,459.77
2022-11-19T22:43:36.341Z,467.50
2022-11-19T22:46:06.556Z,473.17
2022-11-19T22:48:34.641Z,475.25
2022-11-19T22:51:23.779Z,470.93
2022-11-19T22:53:51.824Z,473.25
2022-11-19T22:56:24.326Z,479.58
2022-11-19T22:58:52.706Z,472.65
2022-11-19T23:01:24.979Z,477.40
2022-11-19T23:03:52.854Z,468.60
2022-11-19T23:06:19.648Z,462.50
2022-11-19T23:08:46.828Z,442.97
2022-11-19T23:11:14.940Z,460.45
2022-11-19T23:13:44.257Z,467.90
2022-11-19T23:16:13.669Z,464.95
2022-11-19T23:19:01.742Z,458.60
2022-11-19T23:21:31.452Z,465.20
2022-11-19T23:23:59.902Z,466.27
2022-11-19T23:26:31.069Z,473.98
2022-11-19T23:28:58.100Z,475.17
2022-11-19T23:31:27.589Z,479.83
2022-11-19T23:33:58.994Z,487.55
2022-11-19T23:36:45.787Z,477.27
2022-11-19T23:39:18.297Z,491.73
2022-11-19T23:41:45.500Z,495.40
2022-11-19T23:44:12.260Z,478.88
2022-11-19T23:46:39.121Z,482.52
2022-11-19T23:49:05.943Z,487.50
2022-11-19T23:51:35.631Z,494.35
2022-11-19T23:54:02.896Z,483.55
2022-11-19T23:56:31.772Z,497.17
2022-11-19T23:59:00.600Z,490.33
